Rancho Park, California
Current Conditions -  °F | °C
As of 7:51 PM on Wednesday 28 Jan 2015 (Local Time) from KSMO Reporting Station
Clear Clear  
Wind Chill: 63°   Ceiling: Unl
Heat Index: 63°   Visibility: 10mi
Dew Point: 55°   Wind: 3mph
Humidity: 75%   Direction: 210°SSW
Pressure: 30.08"   Gusts: NA
Location:  34.0365°N, 118.425°W
Report Text: KSMO 290351Z 21003KT 10SM CLR 17/13 A3008 RMK AO2 SLP186 T01720128
Loading
Personal Weather Stations






























Interactive Weather Map New forecast layout! Learn more

10-Day Weather Forecast

Advertisements
Track Severe Weather on mobile